Notice: Undefined index: language in D:\xampp\htdocs\vam\index.php on line 25
Open Air Virtual

 METAR AND TAF INFORMATION
METAR FOR ESUP
ADDS - METARS form results

(2221 UTC 14 December 2019)
Data provider http://aviationweather.gov/metar/data/
 
METAR text: ESUP 142150Z AUTO 11009KT 5000 // FEW005/// SCT007/// BKN009/// M01/M02 Q1000
Conditions at: ESUP (PAJALA , SE) observed 2150 UTC 14 December 2019
Temperature: -1.0°C (30°F)
Dewpoint: -2.0°C (28°F) [RH = 93%]
Pressure (altimeter): 29.53 inches Hg (1000.0 mb)
Winds: from the ESE (110 degrees) at 10 MPH (9 knots; 4.6 m/s)
Visibility: 3 miles ( 5 km)
Ceiling: 900 feet AGL
Clouds: few clouds at 500 feet AGL
scattered clouds at 700 feet AGL
broken clouds at 900 feet AGL
Weather: no significant weather observed at this time

 AIRPORT MAP

 RUNWAY INFORMATION
Runway 11 Runway length 4659 ft Runway width 98 ft
Runway elevation 540 ft Runway displaced threshold 0 ft Runway heading 118
Runway 29 Runway length 4659 ft Runway width 98 ft
Runway elevation 540 ft Runway displaced threshold 0 ft Runway heading 298

 AIRPORT FREQUENCIES
Type AFIS Name AFIS Frequency 118.25 MHZ

 AIRPORT NEAR NAVIGATION AIDS



Powered by Virtual Airlines Manager [v2.6.2]